sensor_id;sensor_type;location;lat;lon;timestamp;temperature;humidity
68439;SHT31;55421;51.600;5.718;2023-12-20T00:01:06;7.38;92.30
68439;SHT31;55421;51.600;5.718;2023-12-20T00:03:42;7.36;92.30
68439;SHT31;55421;51.600;5.718;2023-12-20T00:06:09;7.34;92.30
68439;SHT31;55421;51.600;5.718;2023-12-20T00:08:36;7.30;92.29
68439;SHT31;55421;51.600;5.718;2023-12-20T00:11:02;7.27;92.30
68439;SHT31;55421;51.600;5.718;2023-12-20T00:13:29;7.23;92.26
68439;SHT31;55421;51.600;5.718;2023-12-20T00:15:55;7.20;92.24
68439;SHT31;55421;51.600;5.718;2023-12-20T00:18:22;7.17;92.24
68439;SHT31;55421;51.600;5.718;2023-12-20T00:20:49;7.12;92.20
68439;SHT31;55421;51.600;5.718;2023-12-20T00:23:15;7.07;92.18
68439;SHT31;55421;51.600;5.718;2023-12-20T00:25:42;7.04;92.17
68439;SHT31;55421;51.600;5.718;2023-12-20T00:28:08;7.00;92.19
68439;SHT31;55421;51.600;5.718;2023-12-20T00:30:35;6.96;92.20
68439;SHT31;55421;51.600;5.718;2023-12-20T00:33:02;6.95;92.20
68439;SHT31;55421;51.600;5.718;2023-12-20T00:35:29;6.93;92.20
68439;SHT31;55421;51.600;5.718;2023-12-20T00:37:55;6.92;92.20
68439;SHT31;55421;51.600;5.718;2023-12-20T00:40:22;6.91;92.19
68439;SHT31;55421;51.600;5.718;2023-12-20T00:42:48;6.89;92.12
68439;SHT31;55421;51.600;5.718;2023-12-20T00:45:15;6.89;92.13
68439;SHT31;55421;51.600;5.718;2023-12-20T00:47:41;6.87;92.08
68439;SHT31;55421;51.600;5.718;2023-12-20T00:50:08;6.86;92.00
68439;SHT31;55421;51.600;5.718;2023-12-20T00:52:35;6.83;91.93
68439;SHT31;55421;51.600;5.718;2023-12-20T00:55:01;6.80;91.85
68439;SHT31;55421;51.600;5.718;2023-12-20T00:57:30;6.74;91.80
68439;SHT31;55421;51.600;5.718;2023-12-20T00:59:57;6.71;91.76
68439;SHT31;55421;51.600;5.718;2023-12-20T01:02:23;6.66;91.70
68439;SHT31;55421;51.600;5.718;2023-12-20T01:04:50;6.64;91.70
68439;SHT31;55421;51.600;5.718;2023-12-20T01:07:16;6.60;91.70
68439;SHT31;55421;51.600;5.718;2023-12-20T01:09:43;6.57;91.70
68439;SHT31;55421;51.600;5.718;2023-12-20T01:12:09;6.52;91.65
68439;SHT31;55421;51.600;5.718;2023-12-20T01:14:36;6.50;91.60
68439;SHT31;55421;51.600;5.718;2023-12-20T01:17:02;6.47;91.62
68439;SHT31;55421;51.600;5.718;2023-12-20T01:19:29;6.46;91.61
68439;SHT31;55421;51.600;5.718;2023-12-20T01:21:55;6.43;91.63
68439;SHT31;55421;51.600;5.718;2023-12-20T01:24:22;6.42;91.67
68439;SHT31;55421;51.600;5.718;2023-12-20T01:26:48;6.41;91.70
68439;SHT31;55421;51.600;5.718;2023-12-20T01:29:15;6.41;91.69
68439;SHT31;55421;51.600;5.718;2023-12-20T01:31:42;6.42;91.70
68439;SHT31;55421;51.600;5.718;2023-12-20T01:34:08;6.42;91.70
68439;SHT31;55421;51.600;5.718;2023-12-20T01:36:35;6.43;91.70
68439;SHT31;55421;51.600;5.718;2023-12-20T01:39:01;6.43;91.70
68439;SHT31;55421;51.600;5.718;2023-12-20T01:41:28;6.46;91.71
68439;SHT31;55421;51.600;5.718;2023-12-20T01:43:54;6.48;91.70
68439;SHT31;55421;51.600;5.718;2023-12-20T01:46:20;6.50;91.70
68439;SHT31;55421;51.600;5.718;2023-12-20T01:48:48;6.52;91.72
68439;SHT31;55421;51.600;5.718;2023-12-20T01:51:15;6.53;91.70
68439;SHT31;55421;51.600;5.718;2023-12-20T01:53:42;6.55;91.70
68439;SHT31;55421;51.600;5.718;2023-12-20T01:56:09;6.57;91.70
68439;SHT31;55421;51.600;5.718;2023-12-20T01:58:38;6.59;91.69
68439;SHT31;55421;51.600;5.718;2023-12-20T02:01:11;6.59;91.61
68439;SHT31;55421;51.600;5.718;2023-12-20T02:03:40;6.58;91.53
68439;SHT31;55421;51.600;5.718;2023-12-20T02:06:09;6.55;91.50
68439;SHT31;55421;51.600;5.718;2023-12-20T02:08:35;6.53;91.48
68439;SHT31;55421;51.600;5.718;2023-12-20T02:11:02;6.49;91.43
68439;SHT31;55421;51.600;5.718;2023-12-20T02:13:29;6.46;91.40
68439;SHT31;55421;51.600;5.718;2023-12-20T02:15:57;6.43;91.38
68439;SHT31;55421;51.600;5.718;2023-12-20T02:18:24;6.39;91.31
68439;SHT31;55421;51.600;5.718;2023-12-20T02:20:50;6.37;91.30
68439;SHT31;55421;51.600;5.718;2023-12-20T02:23:17;6.33;91.30
68439;SHT31;55421;51.600;5.718;2023-12-20T02:25:43;6.30;91.30
68439;SHT31;55421;51.600;5.718;2023-12-20T02:28:09;6.26;91.30
68439;SHT31;55421;51.600;5.718;2023-12-20T02:30:36;6.23;91.30
68439;SHT31;55421;51.600;5.718;2023-12-20T02:33:03;6.19;91.30
68439;SHT31;55421;51.600;5.718;2023-12-20T02:35:36;6.17;91.31
68439;SHT31;55421;51.600;5.718;2023-12-20T02:38:03;6.15;91.40
68439;SHT31;55421;51.600;5.718;2023-12-20T02:40:29;6.13;91.40
68439;SHT31;55421;51.600;5.718;2023-12-20T02:42:56;6.13;91.40
68439;SHT31;55421;51.600;5.718;2023-12-20T02:45:22;6.11;91.42
68439;SHT31;55421;51.600;5.718;2023-12-20T02:47:49;6.09;91.40
68439;SHT31;55421;51.600;5.718;2023-12-20T02:50:15;6.07;91.41
68439;SHT31;55421;51.600;5.718;2023-12-20T02:52:44;6.05;91.50
68439;SHT31;55421;51.600;5.718;2023-12-20T02:55:11;6.04;91.50
68439;SHT31;55421;51.600;5.718;2023-12-20T02:57:37;6.05;91.51
68439;SHT31;55421;51.600;5.718;2023-12-20T03:00:08;6.04;91.55
68439;SHT31;55421;51.600;5.718;2023-12-20T03:02:36;6.03;91.58
68439;SHT31;55421;51.600;5.718;2023-12-20T03:05:03;6.02;91.57
68439;SHT31;55421;51.600;5.718;2023-12-20T03:07:30;6.01;91.60
68439;SHT31;55421;51.600;5.718;2023-12-20T03:09:56;6.01;91.60
68439;SHT31;55421;51.600;5.718;2023-12-20T03:12:23;6.00;91.60
68439;SHT31;55421;51.600;5.718;2023-12-20T03:14:49;5.99;91.64
68439;SHT31;55421;51.600;5.718;2023-12-20T03:17:16;6.00;91.70
68439;SHT31;55421;51.600;5.718;2023-12-20T03:19:43;6.00;91.70
68439;SHT31;55421;51.600;5.718;2023-12-20T03:22:09;6.00;91.68
68439;SHT31;55421;51.600;5.718;2023-12-20T03:24:35;5.99;91.69
68439;SHT31;55421;51.600;5.718;2023-12-20T03:27:02;5.99;91.70
68439;SHT31;55421;51.600;5.718;2023-12-20T03:29:29;5.98;91.70
68439;SHT31;55421;51.600;5.718;2023-12-20T03:31:55;5.97;91.70
68439;SHT31;55421;51.600;5.718;2023-12-20T03:34:22;5.97;91.70
68439;SHT31;55421;51.600;5.718;2023-12-20T03:36:48;5.96;91.70
68439;SHT31;55421;51.600;5.718;2023-12-20T03:39:15;5.95;91.72
68439;SHT31;55421;51.600;5.718;2023-12-20T03:41:41;5.95;91.74
68439;SHT31;55421;51.600;5.718;2023-12-20T03:44:08;5.93;91.73
68439;SHT31;55421;51.600;5.718;2023-12-20T03:46:34;5.93;91.73
68439;SHT31;55421;51.600;5.718;2023-12-20T03:49:00;5.92;91.80
68439;SHT31;55421;51.600;5.718;2023-12-20T03:51:27;5.92;91.79
68439;SHT31;55421;51.600;5.718;2023-12-20T03:53:53;5.91;91.80
68439;SHT31;55421;51.600;5.718;2023-12-20T03:56:20;5.93;91.84
68439;SHT31;55421;51.600;5.718;2023-12-20T03:58:46;5.95;91.90
68439;SHT31;55421;51.600;5.718;2023-12-20T04:01:13;5.99;91.95
68439;SHT31;55421;51.600;5.718;2023-12-20T04:03:39;6.03;91.98
68439;SHT31;55421;51.600;5.718;2023-12-20T04:06:06;6.07;91.99
68439;SHT31;55421;51.600;5.718;2023-12-20T04:08:32;6.10;91.94
68439;SHT31;55421;51.600;5.718;2023-12-20T04:10:59;6.14;91.90
68439;SHT31;55421;51.600;5.718;2023-12-20T04:13:26;6.16;91.90
68439;SHT31;55421;51.600;5.718;2023-12-20T04:15:53;6.19;91.90
68439;SHT31;55421;51.600;5.718;2023-12-20T04:18:19;6.21;91.90
68439;SHT31;55421;51.600;5.718;2023-12-20T04:20:45;6.23;91.90
68439;SHT31;55421;51.600;5.718;2023-12-20T04:23:12;6.24;91.89
68439;SHT31;55421;51.600;5.718;2023-12-20T04:25:38;6.26;91.84
68439;SHT31;55421;51.600;5.718;2023-12-20T04:28:05;6.27;91.81
68439;SHT31;55421;51.600;5.718;2023-12-20T04:30:31;6.28;91.80
68439;SHT31;55421;51.600;5.718;2023-12-20T04:32:57;6.29;91.80
68439;SHT31;55421;51.600;5.718;2023-12-20T04:35:24;6.31;91.78
68439;SHT31;55421;51.600;5.718;2023-12-20T04:37:50;6.32;91.79
68439;SHT31;55421;51.600;5.718;2023-12-20T04:40:17;6.34;91.80
68439;SHT31;55421;51.600;5.718;2023-12-20T04:42:43;6.37;91.78
68439;SHT31;55421;51.600;5.718;2023-12-20T04:45:10;6.39;91.80
68439;SHT31;55421;51.600;5.718;2023-12-20T04:47:39;6.41;91.75
68439;SHT31;55421;51.600;5.718;2023-12-20T04:50:05;6.43;91.74
68439;SHT31;55421;51.600;5.718;2023-12-20T04:52:33;6.44;91.70
68439;SHT31;55421;51.600;5.718;2023-12-20T04:55:00;6.46;91.71
68439;SHT31;55421;51.600;5.718;2023-12-20T04:57:27;6.46;91.70
68439;SHT31;55421;51.600;5.718;2023-12-20T04:59:53;6.48;91.70
68439;SHT31;55421;51.600;5.718;2023-12-20T05:02:20;6.47;91.66
68439;SHT31;55421;51.600;5.718;2023-12-20T05:04:47;6.46;91.60
68439;SHT31;55421;51.600;5.718;2023-12-20T05:07:13;6.45;91.60
68439;SHT31;55421;51.600;5.718;2023-12-20T05:09:40;6.43;91.59
68439;SHT31;55421;51.600;5.718;2023-12-20T05:12:06;6.43;91.60
68439;SHT31;55421;51.600;5.718;2023-12-20T05:14:33;6.44;91.66
68439;SHT31;55421;51.600;5.718;2023-12-20T05:17:00;6.46;91.70
68439;SHT31;55421;51.600;5.718;2023-12-20T05:19:26;6.47;91.70
68439;SHT31;55421;51.600;5.718;2023-12-20T05:21:52;6.49;91.70
68439;SHT31;55421;51.600;5.718;2023-12-20T05:24:19;6.50;91.70
68439;SHT31;55421;51.600;5.718;2023-12-20T05:26:45;6.54;91.70
68439;SHT31;55421;51.600;5.718;2023-12-20T05:29:12;6.55;91.70
68439;SHT31;55421;51.600;5.718;2023-12-20T05:31:38;6.56;91.70
68439;SHT31;55421;51.600;5.718;2023-12-20T05:34:05;6.59;91.69
68439;SHT31;55421;51.600;5.718;2023-12-20T05:36:31;6.60;91.63
68439;SHT31;55421;51.600;5.718;2023-12-20T05:38:58;6.62;91.60
68439;SHT31;55421;51.600;5.718;2023-12-20T05:41:24;6.64;91.59
68439;SHT31;55421;51.600;5.718;2023-12-20T05:43:51;6.65;91.55
68439;SHT31;55421;51.600;5.718;2023-12-20T05:46:17;6.66;91.51
68439;SHT31;55421;51.600;5.718;2023-12-20T05:48:44;6.66;91.50
68439;SHT31;55421;51.600;5.718;2023-12-20T05:51:13;6.67;91.43
68439;SHT31;55421;51.600;5.718;2023-12-20T05:53:40;6.68;91.40
68439;SHT31;55421;51.600;5.718;2023-12-20T05:56:06;6.68;91.37
68439;SHT31;55421;51.600;5.718;2023-12-20T05:58:33;6.68;91.39
68439;SHT31;55421;51.600;5.718;2023-12-20T06:00:59;6.69;91.32
68439;SHT31;55421;51.600;5.718;2023-12-20T06:03:26;6.70;91.31
68439;SHT31;55421;51.600;5.718;2023-12-20T06:05:52;6.70;91.21
68439;SHT31;55421;51.600;5.718;2023-12-20T06:08:19;6.73;91.20
68439;SHT31;55421;51.600;5.718;2023-12-20T06:10:45;6.73;91.15
68439;SHT31;55421;51.600;5.718;2023-12-20T06:13:14;6.74;91.10
68439;SHT31;55421;51.600;5.718;2023-12-20T06:15:40;6.76;91.09
68439;SHT31;55421;51.600;5.718;2023-12-20T06:18:07;6.77;91.03
68439;SHT31;55421;51.600;5.718;2023-12-20T06:20:33;6.77;91.00
68439;SHT31;55421;51.600;5.718;2023-12-20T06:23:02;6.77;90.98
68439;SHT31;55421;51.600;5.718;2023-12-20T06:25:28;6.77;90.93
68439;SHT31;55421;51.600;5.718;2023-12-20T06:27:55;6.77;90.92
68439;SHT31;55421;51.600;5.718;2023-12-20T06:30:21;6.75;90.91
68439;SHT31;55421;51.600;5.718;2023-12-20T06:32:47;6.74;90.90
68439;SHT31;55421;51.600;5.718;2023-12-20T06:35:14;6.73;90.89
68439;SHT31;55421;51.600;5.718;2023-12-20T06:37:41;6.72;90.89
68439;SHT31;55421;51.600;5.718;2023-12-20T06:40:09;6.72;90.81
68439;SHT31;55421;51.600;5.718;2023-12-20T06:42:37;6.71;90.80
68439;SHT31;55421;51.600;5.718;2023-12-20T06:45:03;6.70;90.79
68439;SHT31;55421;51.600;5.718;2023-12-20T06:47:30;6.70;90.79
68439;SHT31;55421;51.600;5.718;2023-12-20T06:49:58;6.70;90.73
68439;SHT31;55421;51.600;5.718;2023-12-20T06:52:25;6.69;90.70
68439;SHT31;55421;51.600;5.718;2023-12-20T06:54:51;6.69;90.67
68439;SHT31;55421;51.600;5.718;2023-12-20T06:57:18;6.69;90.67
68439;SHT31;55421;51.600;5.718;2023-12-20T06:59:46;6.68;90.60
68439;SHT31;55421;51.600;5.718;2023-12-20T07:02:12;6.67;90.60
68439;SHT31;55421;51.600;5.718;2023-12-20T07:04:42;6.66;90.60
68439;SHT31;55421;51.600;5.718;2023-12-20T07:07:09;6.65;90.51
68439;SHT31;55421;51.600;5.718;2023-12-20T07:09:35;6.65;90.50
68439;SHT31;55421;51.600;5.718;2023-12-20T07:12:02;6.63;90.50
68439;SHT31;55421;51.600;5.718;2023-12-20T07:14:30;6.63;90.50
68439;SHT31;55421;51.600;5.718;2023-12-20T07:16:57;6.62;90.50
68439;SHT31;55421;51.600;5.718;2023-12-20T07:19:23;6.61;90.50
68439;SHT31;55421;51.600;5.718;2023-12-20T07:21:50;6.60;90.49
68439;SHT31;55421;51.600;5.718;2023-12-20T07:24:16;6.59;90.43
68439;SHT31;55421;51.600;5.718;2023-12-20T07:26:43;6.58;90.40
68439;SHT31;55421;51.600;5.718;2023-12-20T07:29:09;6.56;90.41
68439;SHT31;55421;51.600;5.718;2023-12-20T07:31:36;6.56;90.40
68439;SHT31;55421;51.600;5.718;2023-12-20T07:34:02;6.56;90.39
68439;SHT31;55421;51.600;5.718;2023-12-20T07:36:28;6.56;90.37
68439;SHT31;55421;51.600;5.718;2023-12-20T07:38:55;6.56;90.40
68439;SHT31;55421;51.600;5.718;2023-12-20T07:41:21;6.55;90.39
68439;SHT31;55421;51.600;5.718;2023-12-20T07:43:49;6.54;90.34
68439;SHT31;55421;51.600;5.718;2023-12-20T07:46:16;6.55;90.37
68439;SHT31;55421;51.600;5.718;2023-12-20T07:48:42;6.55;90.34
68439;SHT31;55421;51.600;5.718;2023-12-20T07:51:09;6.55;90.33
68439;SHT31;55421;51.600;5.718;2023-12-20T07:53:36;6.56;90.30
68439;SHT31;55421;51.600;5.718;2023-12-20T07:56:12;6.57;90.30
68439;SHT31;55421;51.600;5.718;2023-12-20T07:58:43;6.57;90.30
68439;SHT31;55421;51.600;5.718;2023-12-20T08:01:11;6.58;90.25
68439;SHT31;55421;51.600;5.718;2023-12-20T08:03:38;6.59;90.20
68439;SHT31;55421;51.600;5.718;2023-12-20T08:06:05;6.61;90.21
68439;SHT31;55421;51.600;5.718;2023-12-20T08:08:31;6.61;90.18
68439;SHT31;55421;51.600;5.718;2023-12-20T08:10:58;6.63;90.10
68439;SHT31;55421;51.600;5.718;2023-12-20T08:13:26;6.64;90.10
68439;SHT31;55421;51.600;5.718;2023-12-20T08:15:53;6.65;90.08
68439;SHT31;55421;51.600;5.718;2023-12-20T08:18:20;6.66;90.02
68439;SHT31;55421;51.600;5.718;2023-12-20T08:20:46;6.68;90.01
68439;SHT31;55421;51.600;5.718;2023-12-20T08:23:14;6.69;89.99
68439;SHT31;55421;51.600;5.718;2023-12-20T08:25:41;6.71;89.91
68439;SHT31;55421;51.600;5.718;2023-12-20T08:28:08;6.74;89.90
68439;SHT31;55421;51.600;5.718;2023-12-20T08:30:34;6.76;89.90
68439;SHT31;55421;51.600;5.718;2023-12-20T08:33:01;6.78;89.86
68439;SHT31;55421;51.600;5.718;2023-12-20T08:35:28;6.79;89.81
68439;SHT31;55421;51.600;5.718;2023-12-20T08:37:56;6.81;89.78
68439;SHT31;55421;51.600;5.718;2023-12-20T08:40:22;6.83;89.79
68439;SHT31;55421;51.600;5.718;2023-12-20T08:42:49;6.85;89.78
68439;SHT31;55421;51.600;5.718;2023-12-20T08:45:18;6.87;89.71
68439;SHT31;55421;51.600;5.718;2023-12-20T08:47:45;6.88;89.71
68439;SHT31;55421;51.600;5.718;2023-12-20T08:50:14;6.92;89.70
68439;SHT31;55421;51.600;5.718;2023-12-20T08:52:41;6.94;89.66
68439;SHT31;55421;51.600;5.718;2023-12-20T08:55:08;6.95;89.60
68439;SHT31;55421;51.600;5.718;2023-12-20T08:57:36;6.98;89.61
68439;SHT31;55421;51.600;5.718;2023-12-20T09:00:03;7.00;89.56
68439;SHT31;55421;51.600;5.718;2023-12-20T09:02:30;7.02;89.51
68439;SHT31;55421;51.600;5.718;2023-12-20T09:04:56;7.03;89.49
68439;SHT31;55421;51.600;5.718;2023-12-20T09:07:23;7.06;89.40
68439;SHT31;55421;51.600;5.718;2023-12-20T09:09:52;7.09;89.41
68439;SHT31;55421;51.600;5.718;2023-12-20T09:12:19;7.11;89.39
68439;SHT31;55421;51.600;5.718;2023-12-20T09:14:47;7.14;89.37
68439;SHT31;55421;51.600;5.718;2023-12-20T09:17:16;7.15;89.28
68439;SHT31;55421;51.600;5.718;2023-12-20T09:19:43;7.16;89.21
68439;SHT31;55421;51.600;5.718;2023-12-20T09:22:11;7.18;89.18
68439;SHT31;55421;51.600;5.718;2023-12-20T09:24:38;7.18;89.20
68439;SHT31;55421;51.600;5.718;2023-12-20T09:27:05;7.20;89.18
68439;SHT31;55421;51.600;5.718;2023-12-20T09:29:32;7.21;89.11
68439;SHT31;55421;51.600;5.718;2023-12-20T09:31:58;7.23;89.03
68439;SHT31;55421;51.600;5.718;2023-12-20T09:34:25;7.23;89.03
68439;SHT31;55421;51.600;5.718;2023-12-20T09:36:53;7.24;89.07
68439;SHT31;55421;51.600;5.718;2023-12-20T09:39:19;7.26;88.98
68439;SHT31;55421;51.600;5.718;2023-12-20T09:41:49;7.27;88.90
68439;SHT31;55421;51.600;5.718;2023-12-20T09:44:28;7.28;88.90
68439;SHT31;55421;51.600;5.718;2023-12-20T09:46:55;7.28;88.81
68439;SHT31;55421;51.600;5.718;2023-12-20T09:49:23;7.27;88.75
68439;SHT31;55421;51.600;5.718;2023-12-20T09:51:53;7.28;88.80
68439;SHT31;55421;51.600;5.718;2023-12-20T09:54:21;7.28;88.80
68439;SHT31;55421;51.600;5.718;2023-12-20T09:56:50;7.29;88.80
68439;SHT31;55421;51.600;5.718;2023-12-20T09:59:16;7.29;88.71
68439;SHT31;55421;51.600;5.718;2023-12-20T10:01:43;7.30;88.70
68439;SHT31;55421;51.600;5.718;2023-12-20T10:04:10;7.31;88.76
68439;SHT31;55421;51.600;5.718;2023-12-20T10:06:42;7.31;88.76
68439;SHT31;55421;51.600;5.718;2023-12-20T10:09:11;7.32;88.72
68439;SHT31;55421;51.600;5.718;2023-12-20T10:11:38;7.33;88.79
68439;SHT31;55421;51.600;5.718;2023-12-20T10:14:07;7.34;88.80
68439;SHT31;55421;51.600;5.718;2023-12-20T10:16:34;7.36;88.79
68439;SHT31;55421;51.600;5.718;2023-12-20T10:19:01;7.37;88.77
68439;SHT31;55421;51.600;5.718;2023-12-20T10:21:28;7.39;88.80
68439;SHT31;55421;51.600;5.718;2023-12-20T10:23:55;7.41;88.80
68439;SHT31;55421;51.600;5.718;2023-12-20T10:26:23;7.42;88.81
68439;SHT31;55421;51.600;5.718;2023-12-20T10:28:55;7.43;88.75
68439;SHT31;55421;51.600;5.718;2023-12-20T10:31:26;7.44;88.79
68439;SHT31;55421;51.600;5.718;2023-12-20T10:33:58;7.45;88.81
68439;SHT31;55421;51.600;5.718;2023-12-20T10:36:29;7.45;88.82
68439;SHT31;55421;51.600;5.718;2023-12-20T10:38:57;7.47;88.80
68439;SHT31;55421;51.600;5.718;2023-12-20T10:41:26;7.47;88.81
68439;SHT31;55421;51.600;5.718;2023-12-20T10:43:58;7.49;88.79
68439;SHT31;55421;51.600;5.718;2023-12-20T10:46:27;7.50;88.72
68439;SHT31;55421;51.600;5.718;2023-12-20T10:48:56;7.53;88.71
68439;SHT31;55421;51.600;5.718;2023-12-20T10:51:26;7.55;88.70
68439;SHT31;55421;51.600;5.718;2023-12-20T10:53:53;7.57;88.72
68439;SHT31;55421;51.600;5.718;2023-12-20T10:56:22;7.57;88.80
68439;SHT31;55421;51.600;5.718;2023-12-20T10:58:52;7.59;88.80
68439;SHT31;55421;51.600;5.718;2023-12-20T11:01:20;7.61;88.87
68439;SHT31;55421;51.600;5.718;2023-12-20T11:03:51;7.62;88.84
68439;SHT31;55421;51.600;5.718;2023-12-20T11:09:26;7.65;88.83
68439;SHT31;55421;51.600;5.718;2023-12-20T11:12:04;7.66;88.90
68439;SHT31;55421;51.600;5.718;2023-12-20T11:15:04;7.67;88.99
68439;SHT31;55421;51.600;5.718;2023-12-20T11:17:39;7.70;89.05
68439;SHT31;55421;51.600;5.718;2023-12-20T11:20:07;7.72;89.04
68439;SHT31;55421;51.600;5.718;2023-12-20T11:22:37;7.74;89.00
68439;SHT31;55421;51.600;5.718;2023-12-20T11:25:08;7.75;89.00
68439;SHT31;55421;51.600;5.718;2023-12-20T11:27:40;7.77;88.93
68439;SHT31;55421;51.600;5.718;2023-12-20T11:30:09;7.79;88.87
68439;SHT31;55421;51.600;5.718;2023-12-20T11:32:36;7.80;88.77
68439;SHT31;55421;51.600;5.718;2023-12-20T11:37:37;7.81;88.70
68439;SHT31;55421;51.600;5.718;2023-12-20T11:40:11;7.83;88.70
68439;SHT31;55421;51.600;5.718;2023-12-20T11:42:41;7.84;88.70
68439;SHT31;55421;51.600;5.718;2023-12-20T11:47:48;7.89;88.66
68439;SHT31;55421;51.600;5.718;2023-12-20T11:50:16;7.93;88.61
68439;SHT31;55421;51.600;5.718;2023-12-20T11:52:47;7.94;88.60
68439;SHT31;55421;51.600;5.718;2023-12-20T11:55:15;7.95;88.59
68439;SHT31;55421;51.600;5.718;2023-12-20T11:57:42;7.96;88.64
68439;SHT31;55421;51.600;5.718;2023-12-20T12:00:11;7.96;88.73
68439;SHT31;55421;51.600;5.718;2023-12-20T12:02:40;7.95;88.81
68439;SHT31;55421;51.600;5.718;2023-12-20T12:05:07;7.94;88.89
68439;SHT31;55421;51.600;5.718;2023-12-20T12:07:34;7.93;88.95
68439;SHT31;55421;51.600;5.718;2023-12-20T12:10:01;7.89;89.02
68439;SHT31;55421;51.600;5.718;2023-12-20T12:12:29;7.90;89.09
68439;SHT31;55421;51.600;5.718;2023-12-20T12:14:57;7.89;89.21
68439;SHT31;55421;51.600;5.718;2023-12-20T12:17:24;7.90;89.30
68439;SHT31;55421;51.600;5.718;2023-12-20T12:19:51;7.90;89.38
68439;SHT31;55421;51.600;5.718;2023-12-20T12:22:30;7.90;89.46
68439;SHT31;55421;51.600;5.718;2023-12-20T12:24:59;7.89;89.57
68439;SHT31;55421;51.600;5.718;2023-12-20T12:27:36;7.90;89.65
68439;SHT31;55421;51.600;5.718;2023-12-20T12:30:05;7.90;89.70
68439;SHT31;55421;51.600;5.718;2023-12-20T12:32:36;7.88;89.77
68439;SHT31;55421;51.600;5.718;2023-12-20T12:35:03;7.88;89.80
68439;SHT31;55421;51.600;5.718;2023-12-20T12:37:34;7.87;89.87
68439;SHT31;55421;51.600;5.718;2023-12-20T12:40:05;7.86;89.94
68439;SHT31;55421;51.600;5.718;2023-12-20T12:42:36;7.88;90.06
68439;SHT31;55421;51.600;5.718;2023-12-20T12:45:04;7.89;90.09
68439;SHT31;55421;51.600;5.718;2023-12-20T12:47:32;7.88;90.09
68439;SHT31;55421;51.600;5.718;2023-12-20T12:49:59;7.87;90.10
68439;SHT31;55421;51.600;5.718;2023-12-20T12:52:26;7.86;90.10
68439;SHT31;55421;51.600;5.718;2023-12-20T12:54:53;7.86;90.15
68439;SHT31;55421;51.600;5.718;2023-12-20T12:57:19;7.86;90.20
68439;SHT31;55421;51.600;5.718;2023-12-20T12:59:46;7.87;90.24
68439;SHT31;55421;51.600;5.718;2023-12-20T13:02:13;7.88;90.27
68439;SHT31;55421;51.600;5.718;2023-12-20T13:04:40;7.90;90.30
68439;SHT31;55421;51.600;5.718;2023-12-20T13:07:08;7.91;90.30
68439;SHT31;55421;51.600;5.718;2023-12-20T13:09:39;7.93;90.33
68439;SHT31;55421;51.600;5.718;2023-12-20T13:12:06;7.94;90.37
68439;SHT31;55421;51.600;5.718;2023-12-20T13:14:33;7.95;90.35
68439;SHT31;55421;51.600;5.718;2023-12-20T13:17:03;7.97;90.32
68439;SHT31;55421;51.600;5.718;2023-12-20T13:19:30;7.98;90.30
68439;SHT31;55421;51.600;5.718;2023-12-20T13:21:56;7.99;90.30
68439;SHT31;55421;51.600;5.718;2023-12-20T13:24:24;8.00;90.28
68439;SHT31;55421;51.600;5.718;2023-12-20T13:26:51;8.00;90.21
68439;SHT31;55421;51.600;5.718;2023-12-20T13:29:17;8.00;90.22
68439;SHT31;55421;51.600;5.718;2023-12-20T13:31:44;7.99;90.20
68439;SHT31;55421;51.600;5.718;2023-12-20T13:34:10;7.99;90.20
68439;SHT31;55421;51.600;5.718;2023-12-20T13:36:37;7.98;90.20
68439;SHT31;55421;51.600;5.718;2023-12-20T13:39:04;7.99;90.20
68439;SHT31;55421;51.600;5.718;2023-12-20T13:41:31;7.99;90.21
68439;SHT31;55421;51.600;5.718;2023-12-20T13:43:58;8.02;90.24
68439;SHT31;55421;51.600;5.718;2023-12-20T13:46:24;8.06;90.27
68439;SHT31;55421;51.600;5.718;2023-12-20T13:48:50;8.13;90.30
68439;SHT31;55421;51.600;5.718;2023-12-20T13:51:17;8.17;90.29
68439;SHT31;55421;51.600;5.718;2023-12-20T13:53:44;8.20;90.20
68439;SHT31;55421;51.600;5.718;2023-12-20T13:56:10;8.22;90.17
68439;SHT31;55421;51.600;5.718;2023-12-20T13:58:37;8.23;90.11
68439;SHT31;55421;51.600;5.718;2023-12-20T14:01:03;8.24;90.10
68439;SHT31;55421;51.600;5.718;2023-12-20T14:03:30;8.26;90.10
68439;SHT31;55421;51.600;5.718;2023-12-20T14:05:57;8.27;90.00
68439;SHT31;55421;51.600;5.718;2023-12-20T14:08:23;8.27;89.99
68439;SHT31;55421;51.600;5.718;2023-12-20T14:10:50;8.27;89.90
68439;SHT31;55421;51.600;5.718;2023-12-20T14:13:16;8.25;89.90
68439;SHT31;55421;51.600;5.718;2023-12-20T14:15:43;8.26;89.91
68439;SHT31;55421;51.600;5.718;2023-12-20T14:18:10;8.25;89.90
68439;SHT31;55421;51.600;5.718;2023-12-20T14:20:38;8.24;89.90
68439;SHT31;55421;51.600;5.718;2023-12-20T14:23:06;8.24;89.90
68439;SHT31;55421;51.600;5.718;2023-12-20T14:25:32;8.23;89.90
68439;SHT31;55421;51.600;5.718;2023-12-20T14:27:59;8.23;89.90
68439;SHT31;55421;51.600;5.718;2023-12-20T14:30:26;8.22;89.90
68439;SHT31;55421;51.600;5.718;2023-12-20T14:32:55;8.21;89.92
68439;SHT31;55421;51.600;5.718;2023-12-20T14:35:22;8.21;89.97
68439;SHT31;55421;51.600;5.718;2023-12-20T14:37:48;8.20;89.99
68439;SHT31;55421;51.600;5.718;2023-12-20T14:40:19;8.21;89.99
68439;SHT31;55421;51.600;5.718;2023-12-20T14:42:45;8.21;89.98
68439;SHT31;55421;51.600;5.718;2023-12-20T14:45:14;8.20;89.98
68439;SHT31;55421;51.600;5.718;2023-12-20T14:47:42;8.20;89.96
68439;SHT31;55421;51.600;5.718;2023-12-20T14:50:12;8.19;89.91
68439;SHT31;55421;51.600;5.718;2023-12-20T14:52:44;8.19;89.95
68439;SHT31;55421;51.600;5.718;2023-12-20T14:55:13;8.18;89.96
68439;SHT31;55421;51.600;5.718;2023-12-20T14:57:40;8.18;90.00
68439;SHT31;55421;51.600;5.718;2023-12-20T15:00:07;8.18;90.00
68439;SHT31;55421;51.600;5.718;2023-12-20T15:02:34;8.16;90.00
68439;SHT31;55421;51.600;5.718;2023-12-20T15:05:03;8.16;90.00
68439;SHT31;55421;51.600;5.718;2023-12-20T15:07:33;8.18;90.00
68439;SHT31;55421;51.600;5.718;2023-12-20T15:10:02;8.15;90.00
68439;SHT31;55421;51.600;5.718;2023-12-20T15:12:30;8.15;89.99
68439;SHT31;55421;51.600;5.718;2023-12-20T15:14:56;8.15;90.00
68439;SHT31;55421;51.600;5.718;2023-12-20T15:17:23;8.16;90.00
68439;SHT31;55421;51.600;5.718;2023-12-20T15:19:53;8.14;90.00
68439;SHT31;55421;51.600;5.718;2023-12-20T15:22:21;8.14;90.00
68439;SHT31;55421;51.600;5.718;2023-12-20T15:24:48;8.14;90.01
68439;SHT31;55421;51.600;5.718;2023-12-20T15:27:14;8.13;90.03
68439;SHT31;55421;51.600;5.718;2023-12-20T15:29:41;8.13;90.00
68439;SHT31;55421;51.600;5.718;2023-12-20T15:32:07;8.13;90.02
68439;SHT31;55421;51.600;5.718;2023-12-20T15:34:36;8.13;90.08
68439;SHT31;55421;51.600;5.718;2023-12-20T15:37:02;8.12;90.07
68439;SHT31;55421;51.600;5.718;2023-12-20T15:39:29;8.13;90.10
68439;SHT31;55421;51.600;5.718;2023-12-20T15:41:56;8.14;90.08
68439;SHT31;55421;51.600;5.718;2023-12-20T15:44:22;8.14;90.11
68439;SHT31;55421;51.600;5.718;2023-12-20T15:46:49;8.15;90.10
68439;SHT31;55421;51.600;5.718;2023-12-20T15:49:17;8.14;90.10
68439;SHT31;55421;51.600;5.718;2023-12-20T15:51:45;8.14;90.10
68439;SHT31;55421;51.600;5.718;2023-12-20T15:54:11;8.14;90.11